sensor_id;sensor_type;location;lat;lon;timestamp;temperature;humidity
3794;DHT22;1912;51.358;12.282;2023-06-01T03:46:58;12.60;1.00
3794;DHT22;1912;51.358;12.282;2023-06-01T03:49:23;12.60;1.00
3794;DHT22;1912;51.358;12.282;2023-06-01T03:51:49;12.60;1.00
3794;DHT22;1912;51.358;12.282;2023-06-01T03:54:15;12.60;1.00
3794;DHT22;1912;51.358;12.282;2023-06-01T03:56:41;12.60;1.00
3794;DHT22;1912;51.358;12.282;2023-06-01T03:59:07;12.70;1.00
3794;DHT22;1912;51.358;12.282;2023-06-01T04:01:33;12.70;1.00
3794;DHT22;1912;51.358;12.282;2023-06-01T04:03:59;12.70;1.00
3794;DHT22;1912;51.358;12.282;2023-06-01T04:06:25;12.70;1.00
3794;DHT22;1912;51.358;12.282;2023-06-01T04:08:54;12.60;1.00
3794;DHT22;1912;51.358;12.282;2023-06-01T04:11:25;12.60;1.00
3794;DHT22;1912;51.358;12.282;2023-06-01T04:13:51;12.60;1.00
3794;DHT22;1912;51.358;12.282;2023-06-01T04:16:18;12.70;1.00
3794;DHT22;1912;51.358;12.282;2023-06-01T04:18:43;12.80;1.00
3794;DHT22;1912;51.358;12.282;2023-06-01T04:21:09;12.90;1.00
3794;DHT22;1912;51.358;12.282;2023-06-01T04:23:35;12.90;1.00
3794;DHT22;1912;51.358;12.282;2023-06-01T04:26:02;12.90;1.00
3794;DHT22;1912;51.358;12.282;2023-06-01T04:28:31;12.90;1.00
3794;DHT22;1912;51.358;12.282;2023-06-01T04:30:57;13.00;1.00
3794;DHT22;1912;51.358;12.282;2023-06-01T04:33:24;13.10;1.00
3794;DHT22;1912;51.358;12.282;2023-06-01T04:35:51;13.10;1.00
3794;DHT22;1912;51.358;12.282;2023-06-01T04:38:20;13.20;1.00
3794;DHT22;1912;51.358;12.282;2023-06-01T04:40:46;13.10;1.00
3794;DHT22;1912;51.358;12.282;2023-06-01T04:43:12;13.20;1.00
3794;DHT22;1912;51.358;12.282;2023-06-01T04:45:39;13.20;1.00
3794;DHT22;1912;51.358;12.282;2023-06-01T04:48:05;13.20;1.00
3794;DHT22;1912;51.358;12.282;2023-06-01T04:50:34;13.20;1.00
3794;DHT22;1912;51.358;12.282;2023-06-01T04:53:00;13.30;1.00
3794;DHT22;1912;51.358;12.282;2023-06-01T04:55:26;13.40;1.00
3794;DHT22;1912;51.358;12.282;2023-06-01T04:57:52;13.50;1.00
3794;DHT22;1912;51.358;12.282;2023-06-01T05:00:19;13.40;1.00
3794;DHT22;1912;51.358;12.282;2023-06-01T05:02:45;13.50;1.00
3794;DHT22;1912;51.358;12.282;2023-06-01T05:05:14;13.50;1.00
3794;DHT22;1912;51.358;12.282;2023-06-01T05:07:40;13.50;1.00
3794;DHT22;1912;51.358;12.282;2023-06-01T05:10:11;13.50;1.00
3794;DHT22;1912;51.358;12.282;2023-06-01T05:12:37;13.60;1.00
3794;DHT22;1912;51.358;12.282;2023-06-01T05:15:07;13.60;1.00
3794;DHT22;1912;51.358;12.282;2023-06-01T05:17:34;13.60;1.00
3794;DHT22;1912;51.358;12.282;2023-06-01T05:19:59;13.50;1.00
3794;DHT22;1912;51.358;12.282;2023-06-01T05:22:25;13.60;1.00
3794;DHT22;1912;51.358;12.282;2023-06-01T05:24:51;13.80;1.00
3794;DHT22;1912;51.358;12.282;2023-06-01T05:27:17;13.80;1.00
3794;DHT22;1912;51.358;12.282;2023-06-01T05:29:43;14.00;1.00
3794;DHT22;1912;51.358;12.282;2023-06-01T05:32:09;14.20;1.00
3794;DHT22;1912;51.358;12.282;2023-06-01T05:34:35;14.80;1.00
3794;DHT22;1912;51.358;12.282;2023-06-01T05:37:01;15.40;1.00
3794;DHT22;1912;51.358;12.282;2023-06-01T05:39:27;16.10;1.00
3794;DHT22;1912;51.358;12.282;2023-06-01T05:41:54;16.50;1.00
3794;DHT22;1912;51.358;12.282;2023-06-01T05:44:21;16.90;1.00
3794;DHT22;1912;51.358;12.282;2023-06-01T05:46:47;17.40;1.00
3794;DHT22;1912;51.358;12.282;2023-06-01T05:49:12;17.60;1.00
3794;DHT22;1912;51.358;12.282;2023-06-01T05:51:40;17.40;1.00
3794;DHT22;1912;51.358;12.282;2023-06-01T05:54:05;17.30;1.00
3794;DHT22;1912;51.358;12.282;2023-06-01T05:56:31;17.60;1.00
3794;DHT22;1912;51.358;12.282;2023-06-01T05:58:58;18.10;1.00
3794;DHT22;1912;51.358;12.282;2023-06-01T06:01:24;17.80;1.00
3794;DHT22;1912;51.358;12.282;2023-06-01T06:03:50;17.70;1.00
3794;DHT22;1912;51.358;12.282;2023-06-01T06:06:16;17.80;1.00
3794;DHT22;1912;51.358;12.282;2023-06-01T06:08:42;17.70;1.00
3794;DHT22;1912;51.358;12.282;2023-06-01T06:11:08;17.40;1.00
3794;DHT22;1912;51.358;12.282;2023-06-01T06:13:33;18.10;1.00
3794;DHT22;1912;51.358;12.282;2023-06-01T06:15:59;18.50;1.00
3794;DHT22;1912;51.358;12.282;2023-06-01T06:18:25;18.30;1.00
3794;DHT22;1912;51.358;12.282;2023-06-01T06:20:51;18.50;1.00
3794;DHT22;1912;51.358;12.282;2023-06-01T06:23:16;18.00;1.00
3794;DHT22;1912;51.358;12.282;2023-06-01T06:25:42;18.40;1.00
3794;DHT22;1912;51.358;12.282;2023-06-01T06:28:08;18.70;1.00
3794;DHT22;1912;51.358;12.282;2023-06-01T06:30:34;19.20;1.00
3794;DHT22;1912;51.358;12.282;2023-06-01T06:32:59;19.00;1.00
3794;DHT22;1912;51.358;12.282;2023-06-01T06:35:25;18.90;1.00
3794;DHT22;1912;51.358;12.282;2023-06-01T06:37:51;18.90;1.00
3794;DHT22;1912;51.358;12.282;2023-06-01T06:40:17;18.90;1.00
3794;DHT22;1912;51.358;12.282;2023-06-01T06:42:44;18.70;1.00
3794;DHT22;1912;51.358;12.282;2023-06-01T06:45:10;18.30;1.00
3794;DHT22;1912;51.358;12.282;2023-06-01T06:47:36;18.20;1.00
3794;DHT22;1912;51.358;12.282;2023-06-01T06:50:02;18.60;1.00
3794;DHT22;1912;51.358;12.282;2023-06-01T06:52:28;18.50;1.00
3794;DHT22;1912;51.358;12.282;2023-06-01T06:54:54;18.50;1.00
3794;DHT22;1912;51.358;12.282;2023-06-01T06:57:19;18.50;1.00
3794;DHT22;1912;51.358;12.282;2023-06-01T06:59:45;18.60;1.00
3794;DHT22;1912;51.358;12.282;2023-06-01T07:02:11;18.60;1.00
3794;DHT22;1912;51.358;12.282;2023-06-01T07:04:37;18.70;1.00
3794;DHT22;1912;51.358;12.282;2023-06-01T07:07:04;18.70;1.00
3794;DHT22;1912;51.358;12.282;2023-06-01T07:09:31;18.70;1.00
3794;DHT22;1912;51.358;12.282;2023-06-01T07:11:57;18.50;1.00
3794;DHT22;1912;51.358;12.282;2023-06-01T07:14:22;18.40;1.00
3794;DHT22;1912;51.358;12.282;2023-06-01T07:16:48;18.10;1.00
3794;DHT22;1912;51.358;12.282;2023-06-01T07:19:13;18.00;1.00
3794;DHT22;1912;51.358;12.282;2023-06-01T07:21:39;18.00;1.00
3794;DHT22;1912;51.358;12.282;2023-06-01T07:24:05;18.20;1.00
3794;DHT22;1912;51.358;12.282;2023-06-01T07:26:31;18.50;1.00
3794;DHT22;1912;51.358;12.282;2023-06-01T07:28:57;18.50;1.00
3794;DHT22;1912;51.358;12.282;2023-06-01T07:31:23;18.40;1.00
3794;DHT22;1912;51.358;12.282;2023-06-01T07:33:49;18.50;1.00
3794;DHT22;1912;51.358;12.282;2023-06-01T07:36:18;19.00;1.00
3794;DHT22;1912;51.358;12.282;2023-06-01T07:38:44;19.20;1.00
3794;DHT22;1912;51.358;12.282;2023-06-01T07:41:10;19.30;1.00
3794;DHT22;1912;51.358;12.282;2023-06-01T07:43:37;19.20;1.00
3794;DHT22;1912;51.358;12.282;2023-06-01T07:46:03;19.70;1.00
3794;DHT22;1912;51.358;12.282;2023-06-01T07:48:29;19.80;1.00
3794;DHT22;1912;51.358;12.282;2023-06-01T07:51:04;19.80;1.00
3794;DHT22;1912;51.358;12.282;2023-06-01T07:53:31;19.90;1.00
3794;DHT22;1912;51.358;12.282;2023-06-01T07:55:57;19.70;1.00
3794;DHT22;1912;51.358;12.282;2023-06-01T07:58:23;20.30;1.00
3794;DHT22;1912;51.358;12.282;2023-06-01T08:00:48;20.00;1.00
3794;DHT22;1912;51.358;12.282;2023-06-01T08:03:14;19.60;1.00
3794;DHT22;1912;51.358;12.282;2023-06-01T08:05:40;19.80;1.00
3794;DHT22;1912;51.358;12.282;2023-06-01T08:08:08;19.70;1.00
3794;DHT22;1912;51.358;12.282;2023-06-01T08:10:34;19.90;1.00
3794;DHT22;1912;51.358;12.282;2023-06-01T08:13:00;19.90;1.00
3794;DHT22;1912;51.358;12.282;2023-06-01T08:15:26;20.20;1.00
3794;DHT22;1912;51.358;12.282;2023-06-01T08:17:54;20.90;1.00
3794;DHT22;1912;51.358;12.282;2023-06-01T08:20:20;21.40;1.00
3794;DHT22;1912;51.358;12.282;2023-06-01T08:22:47;21.40;1.00
3794;DHT22;1912;51.358;12.282;2023-06-01T08:25:14;21.80;1.00
3794;DHT22;1912;51.358;12.282;2023-06-01T08:27:40;21.10;1.00
3794;DHT22;1912;51.358;12.282;2023-06-01T08:30:07;21.50;1.00
3794;DHT22;1912;51.358;12.282;2023-06-01T08:32:33;21.50;1.00
3794;DHT22;1912;51.358;12.282;2023-06-01T08:34:59;22.00;1.00
3794;DHT22;1912;51.358;12.282;2023-06-01T08:37:24;21.70;1.00
3794;DHT22;1912;51.358;12.282;2023-06-01T08:39:50;22.10;1.00
3794;DHT22;1912;51.358;12.282;2023-06-01T08:42:29;21.30;1.00
3794;DHT22;1912;51.358;12.282;2023-06-01T08:44:58;21.50;1.00
3794;DHT22;1912;51.358;12.282;2023-06-01T08:47:25;21.80;1.00
3794;DHT22;1912;51.358;12.282;2023-06-01T08:49:52;22.40;1.00
3794;DHT22;1912;51.358;12.282;2023-06-01T08:52:24;22.30;1.00
3794;DHT22;1912;51.358;12.282;2023-06-01T08:54:54;22.50;1.00
3794;DHT22;1912;51.358;12.282;2023-06-01T08:57:20;22.50;1.00
3794;DHT22;1912;51.358;12.282;2023-06-01T08:59:46;21.90;1.00
3794;DHT22;1912;51.358;12.282;2023-06-01T09:02:13;22.60;1.00
3794;DHT22;1912;51.358;12.282;2023-06-01T09:04:40;23.00;1.00
3794;DHT22;1912;51.358;12.282;2023-06-01T09:07:10;23.10;1.00
3794;DHT22;1912;51.358;12.282;2023-06-01T09:09:36;22.70;1.00
3794;DHT22;1912;51.358;12.282;2023-06-01T09:12:21;23.10;1.00
3794;DHT22;1912;51.358;12.282;2023-06-01T09:14:50;22.80;1.00
3794;DHT22;1912;51.358;12.282;2023-06-01T09:17:23;22.60;1.00
3794;DHT22;1912;51.358;12.282;2023-06-01T09:19:53;22.20;1.00
3794;DHT22;1912;51.358;12.282;2023-06-01T09:22:22;22.40;1.00
3794;DHT22;1912;51.358;12.282;2023-06-01T09:24:58;22.80;1.00
3794;DHT22;1912;51.358;12.282;2023-06-01T09:27:25;22.70;1.00
3794;DHT22;1912;51.358;12.282;2023-06-01T09:30:00;22.80;1.00
3794;DHT22;1912;51.358;12.282;2023-06-01T09:32:25;23.00;1.00
3794;DHT22;1912;51.358;12.282;2023-06-01T09:34:51;22.60;1.00
3794;DHT22;1912;51.358;12.282;2023-06-01T09:37:18;22.80;1.00
3794;DHT22;1912;51.358;12.282;2023-06-01T09:39:44;23.40;1.00
3794;DHT22;1912;51.358;12.282;2023-06-01T09:42:10;23.80;1.00
3794;DHT22;1912;51.358;12.282;2023-06-01T09:44:37;23.60;1.00
3794;DHT22;1912;51.358;12.282;2023-06-01T09:47:10;23.30;1.00
3794;DHT22;1912;51.358;12.282;2023-06-01T09:49:41;23.60;1.00
3794;DHT22;1912;51.358;12.282;2023-06-01T09:52:11;23.60;1.00
3794;DHT22;1912;51.358;12.282;2023-06-01T09:54:47;24.10;1.00
3794;DHT22;1912;51.358;12.282;2023-06-01T09:57:23;24.70;1.00
3794;DHT22;1912;51.358;12.282;2023-06-01T09:59:49;24.60;1.00
3794;DHT22;1912;51.358;12.282;2023-06-01T10:02:17;24.30;1.00
3794;DHT22;1912;51.358;12.282;2023-06-01T10:04:51;25.00;1.00
3794;DHT22;1912;51.358;12.282;2023-06-01T10:07:26;25.20;1.00
3794;DHT22;1912;51.358;12.282;2023-06-01T10:09:55;25.60;1.00
3794;DHT22;1912;51.358;12.282;2023-06-01T10:12:24;25.60;1.00
3794;DHT22;1912;51.358;12.282;2023-06-01T10:14:51;25.60;1.00
3794;DHT22;1912;51.358;12.282;2023-06-01T10:17:21;25.80;1.00
3794;DHT22;1912;51.358;12.282;2023-06-01T10:19:48;26.00;1.00
3794;DHT22;1912;51.358;12.282;2023-06-01T10:22:14;26.20;1.00
3794;DHT22;1912;51.358;12.282;2023-06-01T10:24:40;25.80;1.00
3794;DHT22;1912;51.358;12.282;2023-06-01T10:27:24;25.50;1.00
3794;DHT22;1912;51.358;12.282;2023-06-01T10:30:01;25.00;1.00
3794;DHT22;1912;51.358;12.282;2023-06-01T10:32:42;25.10;1.00
3794;DHT22;1912;51.358;12.282;2023-06-01T10:40:38;24.40;1.00
3794;DHT22;1912;51.358;12.282;2023-06-01T10:43:04;24.30;1.00
3794;DHT22;1912;51.358;12.282;2023-06-01T10:45:35;24.60;1.00
3794;DHT22;1912;51.358;12.282;2023-06-01T10:48:11;24.80;1.00
3794;DHT22;1912;51.358;12.282;2023-06-01T10:50:39;25.90;1.00
3794;DHT22;1912;51.358;12.282;2023-06-01T10:53:29;26.10;1.00
3794;DHT22;1912;51.358;12.282;2023-06-01T10:56:18;26.30;1.00
3794;DHT22;1912;51.358;12.282;2023-06-01T10:58:46;25.50;1.00
3794;DHT22;1912;51.358;12.282;2023-06-01T11:01:19;25.30;1.00
3794;DHT22;1912;51.358;12.282;2023-06-01T11:03:48;25.20;1.00
3794;DHT22;1912;51.358;12.282;2023-06-01T11:06:35;25.50;1.00
3794;DHT22;1912;51.358;12.282;2023-06-01T11:09:05;25.90;1.00
3794;DHT22;1912;51.358;12.282;2023-06-01T11:14:18;25.60;1.00
3794;DHT22;1912;51.358;12.282;2023-06-01T11:16:46;25.80;1.00
3794;DHT22;1912;51.358;12.282;2023-06-01T11:19:20;26.20;1.00
3794;DHT22;1912;51.358;12.282;2023-06-01T11:21:56;27.10;1.00
3794;DHT22;1912;51.358;12.282;2023-06-01T11:24:35;27.40;1.00
3794;DHT22;1912;51.358;12.282;2023-06-01T11:27:08;27.80;1.00
3794;DHT22;1912;51.358;12.282;2023-06-01T11:29:35;27.90;1.00
3794;DHT22;1912;51.358;12.282;2023-06-01T11:32:02;27.90;1.00
3794;DHT22;1912;51.358;12.282;2023-06-01T11:34:35;28.30;1.00
3794;DHT22;1912;51.358;12.282;2023-06-01T11:37:15;27.30;1.00
3794;DHT22;1912;51.358;12.282;2023-06-01T11:39:45;26.60;1.00
3794;DHT22;1912;51.358;12.282;2023-06-01T11:42:13;27.40;1.00
3794;DHT22;1912;51.358;12.282;2023-06-01T11:44:57;27.70;1.00
3794;DHT22;1912;51.358;12.282;2023-06-01T11:47:28;27.80;1.00
3794;DHT22;1912;51.358;12.282;2023-06-01T11:49:55;27.60;1.00
3794;DHT22;1912;51.358;12.282;2023-06-01T11:52:21;28.10;1.00
3794;DHT22;1912;51.358;12.282;2023-06-01T11:54:48;28.00;1.00
3794;DHT22;1912;51.358;12.282;2023-06-01T11:57:14;27.90;1.00
3794;DHT22;1912;51.358;12.282;2023-06-01T11:59:45;28.60;1.00
3794;DHT22;1912;51.358;12.282;2023-06-01T12:02:25;28.70;1.00
3794;DHT22;1912;51.358;12.282;2023-06-01T12:05:05;28.50;1.00
3794;DHT22;1912;51.358;12.282;2023-06-01T12:07:50;28.90;1.00
3794;DHT22;1912;51.358;12.282;2023-06-01T12:10:20;28.70;1.00
3794;DHT22;1912;51.358;12.282;2023-06-01T12:12:47;29.20;1.00
3794;DHT22;1912;51.358;12.282;2023-06-01T12:15:17;29.20;1.00
3794;DHT22;1912;51.358;12.282;2023-06-01T12:17:54;29.40;1.00
3794;DHT22;1912;51.358;12.282;2023-06-01T12:20:31;28.80;1.00
3794;DHT22;1912;51.358;12.282;2023-06-01T12:22:58;28.80;1.00
3794;DHT22;1912;51.358;12.282;2023-06-01T12:25:26;28.40;1.00
3794;DHT22;1912;51.358;12.282;2023-06-01T12:28:05;28.30;1.00
3794;DHT22;1912;51.358;12.282;2023-06-01T12:30:31;28.20;1.00
3794;DHT22;1912;51.358;12.282;2023-06-01T12:32:58;28.70;1.00
3794;DHT22;1912;51.358;12.282;2023-06-01T12:35:24;28.00;1.00
3794;DHT22;1912;51.358;12.282;2023-06-01T12:38:05;28.10;1.00
3794;DHT22;1912;51.358;12.282;2023-06-01T12:40:35;27.50;1.00
3794;DHT22;1912;51.358;12.282;2023-06-01T12:43:03;28.30;1.00
3794;DHT22;1912;51.358;12.282;2023-06-01T12:45:35;28.40;1.00
3794;DHT22;1912;51.358;12.282;2023-06-01T12:48:01;28.50;1.00
3794;DHT22;1912;51.358;12.282;2023-06-01T12:50:27;28.80;1.00
3794;DHT22;1912;51.358;12.282;2023-06-01T12:52:52;28.20;1.00
3794;DHT22;1912;51.358;12.282;2023-06-01T12:55:18;28.70;1.00
3794;DHT22;1912;51.358;12.282;2023-06-01T12:57:52;28.00;1.00
3794;DHT22;1912;51.358;12.282;2023-06-01T13:00:19;28.10;1.00
3794;DHT22;1912;51.358;12.282;2023-06-01T13:02:45;27.60;1.00
3794;DHT22;1912;51.358;12.282;2023-06-01T13:05:16;27.70;1.00
3794;DHT22;1912;51.358;12.282;2023-06-01T13:07:43;28.30;1.00
3794;DHT22;1912;51.358;12.282;2023-06-01T13:10:10;28.70;1.00
3794;DHT22;1912;51.358;12.282;2023-06-01T13:12:36;28.80;1.00
3794;DHT22;1912;51.358;12.282;2023-06-01T13:15:02;29.20;1.00
3794;DHT22;1912;51.358;12.282;2023-06-01T13:17:31;29.40;1.00
3794;DHT22;1912;51.358;12.282;2023-06-01T13:19:56;28.70;1.00
3794;DHT22;1912;51.358;12.282;2023-06-01T13:22:22;29.20;1.00
3794;DHT22;1912;51.358;12.282;2023-06-01T13:24:48;29.40;1.00
3794;DHT22;1912;51.358;12.282;2023-06-01T13:27:14;29.20;1.00
3794;DHT22;1912;51.358;12.282;2023-06-01T13:29:40;28.70;1.00
3794;DHT22;1912;51.358;12.282;2023-06-01T13:32:07;29.00;1.00
3794;DHT22;1912;51.358;12.282;2023-06-01T13:34:33;28.40;1.00
3794;DHT22;1912;51.358;12.282;2023-06-01T13:36:59;28.50;1.00
3794;DHT22;1912;51.358;12.282;2023-06-01T13:39:25;28.10;1.00
3794;DHT22;1912;51.358;12.282;2023-06-01T13:41:51;28.20;1.00
3794;DHT22;1912;51.358;12.282;2023-06-01T13:44:16;28.30;1.00
3794;DHT22;1912;51.358;12.282;2023-06-01T13:46:43;28.50;1.00
3794;DHT22;1912;51.358;12.282;2023-06-01T13:49:09;28.50;1.00
3794;DHT22;1912;51.358;12.282;2023-06-01T13:51:35;28.10;1.00
3794;DHT22;1912;51.358;12.282;2023-06-01T13:54:03;28.00;1.00
3794;DHT22;1912;51.358;12.282;2023-06-01T13:56:30;28.90;1.00
3794;DHT22;1912;51.358;12.282;2023-06-01T13:58:56;29.30;1.00
3794;DHT22;1912;51.358;12.282;2023-06-01T14:01:21;28.50;1.00
3794;DHT22;1912;51.358;12.282;2023-06-01T14:03:47;28.40;1.00
3794;DHT22;1912;51.358;12.282;2023-06-01T14:06:13;27.80;1.00
3794;DHT22;1912;51.358;12.282;2023-06-01T14:08:39;28.70;1.00
3794;DHT22;1912;51.358;12.282;2023-06-01T14:11:05;28.60;1.00
3794;DHT22;1912;51.358;12.282;2023-06-01T14:13:30;29.00;1.00
3794;DHT22;1912;51.358;12.282;2023-06-01T14:15:56;29.40;1.00
3794;DHT22;1912;51.358;12.282;2023-06-01T14:18:22;29.00;1.00
3794;DHT22;1912;51.358;12.282;2023-06-01T14:20:47;28.80;1.00
3794;DHT22;1912;51.358;12.282;2023-06-01T14:23:13;28.70;1.00
3794;DHT22;1912;51.358;12.282;2023-06-01T14:25:39;28.80;1.00
3794;DHT22;1912;51.358;12.282;2023-06-01T14:28:05;28.30;1.00
3794;DHT22;1912;51.358;12.282;2023-06-01T14:30:31;27.90;1.00
3794;DHT22;1912;51.358;12.282;2023-06-01T14:32:57;27.60;1.00
3794;DHT22;1912;51.358;12.282;2023-06-01T14:35:23;27.90;1.00
3794;DHT22;1912;51.358;12.282;2023-06-01T14:37:48;28.30;1.00
3794;DHT22;1912;51.358;12.282;2023-06-01T14:40:14;28.40;1.00
3794;DHT22;1912;51.358;12.282;2023-06-01T14:42:40;28.20;1.00
3794;DHT22;1912;51.358;12.282;2023-06-01T14:45:07;28.20;1.00
3794;DHT22;1912;51.358;12.282;2023-06-01T14:47:33;27.70;1.00
3794;DHT22;1912;51.358;12.282;2023-06-01T14:49:59;27.70;1.00
3794;DHT22;1912;51.358;12.282;2023-06-01T14:52:24;27.70;1.00
3794;DHT22;1912;51.358;12.282;2023-06-01T14:54:50;28.10;1.00
3794;DHT22;1912;51.358;12.282;2023-06-01T14:57:16;28.20;1.00
3794;DHT22;1912;51.358;12.282;2023-06-01T14:59:42;28.40;1.00
3794;DHT22;1912;51.358;12.282;2023-06-01T15:02:08;28.40;1.00
3794;DHT22;1912;51.358;12.282;2023-06-01T15:04:34;27.80;1.00
3794;DHT22;1912;51.358;12.282;2023-06-01T15:07:00;27.20;1.00
3794;DHT22;1912;51.358;12.282;2023-06-01T15:09:26;27.30;1.00
3794;DHT22;1912;51.358;12.282;2023-06-01T15:11:51;27.20;1.00
3794;DHT22;1912;51.358;12.282;2023-06-01T15:14:17;27.60;1.00
3794;DHT22;1912;51.358;12.282;2023-06-01T15:16:43;27.90;1.00
3794;DHT22;1912;51.358;12.282;2023-06-01T15:19:09;28.10;1.00
3794;DHT22;1912;51.358;12.282;2023-06-01T15:21:35;28.10;1.00
3794;DHT22;1912;51.358;12.282;2023-06-01T15:24:01;27.90;1.00
3794;DHT22;1912;51.358;12.282;2023-06-01T15:26:27;27.60;1.00
3794;DHT22;1912;51.358;12.282;2023-06-01T15:28:53;27.80;1.00
3794;DHT22;1912;51.358;12.282;2023-06-01T15:31:18;27.10;1.00
3794;DHT22;1912;51.358;12.282;2023-06-01T15:33:44;27.10;1.00
3794;DHT22;1912;51.358;12.282;2023-06-01T15:36:10;27.10;1.00
3794;DHT22;1912;51.358;12.282;2023-06-01T15:38:36;27.10;1.00
3794;DHT22;1912;51.358;12.282;2023-06-01T15:41:02;26.50;1.00
3794;DHT22;1912;51.358;12.282;2023-06-01T15:43:28;26.80;1.00
3794;DHT22;1912;51.358;12.282;2023-06-01T15:45:54;26.60;1.00
3794;DHT22;1912;51.358;12.282;2023-06-01T15:48:19;26.30;1.00
3794;DHT22;1912;51.358;12.282;2023-06-01T15:50:45;26.20;1.00
3794;DHT22;1912;51.358;12.282;2023-06-01T15:53:11;26.40;1.00
3794;DHT22;1912;51.358;12.282;2023-06-01T15:55:37;26.20;1.00
3794;DHT22;1912;51.358;12.282;2023-06-01T15:58:02;25.70;1.00
3794;DHT22;1912;51.358;12.282;2023-06-01T16:00:28;26.20;1.00
3794;DHT22;1912;51.358;12.282;2023-06-01T16:02:56;25.70;1.00
3794;DHT22;1912;51.358;12.282;2023-06-01T16:05:22;26.20;1.00
3794;DHT22;1912;51.358;12.282;2023-06-01T16:07:47;26.70;1.00
3794;DHT22;1912;51.358;12.282;2023-06-01T16:10:13;26.90;1.00
3794;DHT22;1912;51.358;12.282;2023-06-01T16:12:39;26.70;1.00
3794;DHT22;1912;51.358;12.282;2023-06-01T16:15:05;26.50;1.00
3794;DHT22;1912;51.358;12.282;2023-06-01T16:17:31;25.70;1.00
3794;DHT22;1912;51.358;12.282;2023-06-01T16:19:59;25.80;1.00
3794;DHT22;1912;51.358;12.282;2023-06-01T16:22:25;25.50;1.00
3794;DHT22;1912;51.358;12.282;2023-06-01T16:24:51;25.00;1.00
3794;DHT22;1912;51.358;12.282;2023-06-01T16:27:17;25.40;1.00
3794;DHT22;1912;51.358;12.282;2023-06-01T16:29:42;25.60;1.00
3794;DHT22;1912;51.358;12.282;2023-06-01T16:32:08;26.00;1.00
3794;DHT22;1912;51.358;12.282;2023-06-01T16:34:34;26.40;1.00
3794;DHT22;1912;51.358;12.282;2023-06-01T16:36:59;26.00;1.00
3794;DHT22;1912;51.358;12.282;2023-06-01T16:39:25;25.60;1.00
3794;DHT22;1912;51.358;12.282;2023-06-01T16:41:51;25.70;1.00
3794;DHT22;1912;51.358;12.282;2023-06-01T16:44:17;25.50;1.00
3794;DHT22;1912;51.358;12.282;2023-06-01T16:46:42;25.50;1.00
3794;DHT22;1912;51.358;12.282;2023-06-01T16:49:08;25.20;1.00
3794;DHT22;1912;51.358;12.282;2023-06-01T16:51:34;24.80;1.00
3794;DHT22;1912;51.358;12.282;2023-06-01T16:54:01;24.70;1.00
3794;DHT22;1912;51.358;12.282;2023-06-01T16:56:29;24.20;1.00
3794;DHT22;1912;51.358;12.282;2023-06-01T16:58:55;24.30;1.00
3794;DHT22;1912;51.358;12.282;2023-06-01T17:01:21;24.00;1.00
3794;DHT22;1912;51.358;12.282;2023-06-01T17:03:46;23.80;1.00
3794;DHT22;1912;51.358;12.282;2023-06-01T17:06:14;23.40;1.00
3794;DHT22;1912;51.358;12.282;2023-06-01T17:08:41;23.40;1.00
3794;DHT22;1912;51.358;12.282;2023-06-01T17:11:06;22.90;1.00
3794;DHT22;1912;51.358;12.282;2023-06-01T17:13:32;22.80;1.00
3794;DHT22;1912;51.358;12.282;2023-06-01T17:15:58;22.40;1.00
3794;DHT22;1912;51.358;12.282;2023-06-01T17:18:23;22.20;1.00
3794;DHT22;1912;51.358;12.282;2023-06-01T17:20:49;22.10;1.00
3794;DHT22;1912;51.358;12.282;2023-06-01T17:23:15;22.20;1.00
3794;DHT22;1912;51.358;12.282;2023-06-01T17:25:40;21.90;1.00
3794;DHT22;1912;51.358;12.282;2023-06-01T17:28:07;21.60;1.00
3794;DHT22;1912;51.358;12.282;2023-06-01T17:30:33;21.50;1.00
3794;DHT22;1912;51.358;12.282;2023-06-01T17:32:58;21.70;1.00
3794;DHT22;1912;51.358;12.282;2023-06-01T17:35:24;21.60;1.00
3794;DHT22;1912;51.358;12.282;2023-06-01T17:37:50;21.80;1.00
3794;DHT22;1912;51.358;12.282;2023-06-01T17:40:16;21.50;1.00
3794;DHT22;1912;51.358;12.282;2023-06-01T17:42:42;21.20;1.00
3794;DHT22;1912;51.358;12.282;2023-06-01T17:45:07;21.00;1.00
3794;DHT22;1912;51.358;12.282;2023-06-01T17:47:35;20.50;1.00
3794;DHT22;1912;51.358;12.282;2023-06-01T17:50:01;20.50;1.00
3794;DHT22;1912;51.358;12.282;2023-06-01T17:52:27;20.60;1.00
3794;DHT22;1912;51.358;12.282;2023-06-01T17:54:52;20.80;1.00
3794;DHT22;1912;51.358;12.282;2023-06-01T17:57:19;20.80;1.00
3794;DHT22;1912;51.358;12.282;2023-06-01T17:59:45;20.90;1.00
3794;DHT22;1912;51.358;12.282;2023-06-01T18:02:10;20.80;1.00
3794;DHT22;1912;51.358;12.282;2023-06-01T18:04:37;20.70;1.00
3794;DHT22;1912;51.358;12.282;2023-06-01T18:07:03;20.50;1.00
3794;DHT22;1912;51.358;12.282;2023-06-01T18:09:29;20.40;1.00
3794;DHT22;1912;51.358;12.282;2023-06-01T18:11:55;20.40;1.00
3794;DHT22;1912;51.358;12.282;2023-06-01T18:14:20;20.00;1.00
3794;DHT22;1912;51.358;12.282;2023-06-01T18:16:46;19.80;1.00
3794;DHT22;1912;51.358;12.282;2023-06-01T18:19:12;20.00;1.00
3794;DHT22;1912;51.358;12.282;2023-06-01T18:21:38;20.00;1.00
3794;DHT22;1912;51.358;12.282;2023-06-01T18:24:04;19.70;1.00
3794;DHT22;1912;51.358;12.282;2023-06-01T18:26:30;19.70;1.00
3794;DHT22;1912;51.358;12.282;2023-06-01T18:28:56;19.70;1.00
3794;DHT22;1912;51.358;12.282;2023-06-01T18:31:23;19.70;1.00
3794;DHT22;1912;51.358;12.282;2023-06-01T18:33:49;19.50;1.00
3794;DHT22;1912;51.358;12.282;2023-06-01T18:36:15;19.00;1.00
3794;DHT22;1912;51.358;12.282;2023-06-01T18:38:41;19.00;1.00
3794;DHT22;1912;51.358;12.282;2023-06-01T18:41:07;18.70;1.00
3794;DHT22;1912;51.358;12.282;2023-06-01T18:43:33;18.90;1.00
3794;DHT22;1912;51.358;12.282;2023-06-01T18:45:59;19.00;1.00
3794;DHT22;1912;51.358;12.282;2023-06-01T18:48:25;19.00;1.00
3794;DHT22;1912;51.358;12.282;2023-06-01T18:50:52;18.70;1.00
3794;DHT22;1912;51.358;12.282;2023-06-01T18:53:18;18.40;1.00
3794;DHT22;1912;51.358;12.282;2023-06-01T18:55:45;18.30;1.00
3794;DHT22;1912;51.358;12.282;2023-06-01T18:58:13;18.40;1.00
3794;DHT22;1912;51.358;12.282;2023-06-01T19:00:39;18.30;1.00
3794;DHT22;1912;51.358;12.282;2023-06-01T19:03:10;18.20;1.00
3794;DHT22;1912;51.358;12.282;2023-06-01T19:05:37;18.00;1.00
3794;DHT22;1912;51.358;12.282;2023-06-01T19:08:02;18.00;1.00
3794;DHT22;1912;51.358;12.282;2023-06-01T19:13:12;18.00;1.00
3794;DHT22;1912;51.358;12.282;2023-06-01T19:15:38;17.80;1.00
3794;DHT22;1912;51.358;12.282;2023-06-01T19:18:04;17.80;1.00
3794;DHT22;1912;51.358;12.282;2023-06-01T19:23:07;17.70;1.00
3794;DHT22;1912;51.358;12.282;2023-06-01T19:25:34;17.50;1.00
3794;DHT22;1912;51.358;12.282;2023-06-01T19:28:00;17.40;1.00
3794;DHT22;1912;51.358;12.282;2023-06-01T19:30:26;17.50;1.00
3794;DHT22;1912;51.358;12.282;2023-06-01T19:32:54;17.70;1.00
3794;DHT22;1912;51.358;12.282;2023-06-01T19:35:21;17.30;1.00
3794;DHT22;1912;51.358;12.282;2023-06-01T19:37:47;17.30;1.00
3794;DHT22;1912;51.358;12.282;2023-06-01T19:40:15;17.10;1.00
3794;DHT22;1912;51.358;12.282;2023-06-01T19:42:41;17.10;1.00
3794;DHT22;1912;51.358;12.282;2023-06-01T19:45:07;16.90;1.00
3794;DHT22;1912;51.358;12.282;2023-06-01T19:47:43;16.90;1.00
3794;DHT22;1912;51.358;12.282;2023-06-01T19:50:37;16.80;1.00
3794;DHT22;1912;51.358;12.282;2023-06-01T19:53:08;16.80;1.00
3794;DHT22;1912;51.358;12.282;2023-06-01T19:55:33;16.60;1.00
3794;DHT22;1912;51.358;12.282;2023-06-01T19:58:00;16.50;1.00
3794;DHT22;1912;51.358;12.282;2023-06-01T20:00:29;16.40;1.00
3794;DHT22;1912;51.358;12.282;2023-06-01T20:02:57;16.40;1.00